createdAt,value
2018-05-23T00:00:22.750Z,0
2018-05-23T00:01:32.744Z,0
2018-05-23T00:02:42.732Z,0
2018-05-23T00:03:52.697Z,0
2018-05-23T00:05:02.427Z,0
2018-05-23T00:06:12.154Z,0
2018-05-23T00:07:21.863Z,0
2018-05-23T00:08:31.585Z,0
2018-05-23T00:09:41.553Z,0
2018-05-23T00:10:51.554Z,0
2018-05-23T00:12:01.538Z,0
2018-05-23T00:13:11.506Z,0
2018-05-23T00:14:21.484Z,0
2018-05-23T00:15:30.932Z,0
2018-05-23T00:16:40.909Z,0
2018-05-23T00:17:50.873Z,0
2018-05-23T00:19:00.596Z,0
2018-05-23T00:20:10.562Z,0
2018-05-23T00:21:20.268Z,0
2018-05-23T00:22:29.982Z,0
2018-05-23T00:23:39.950Z,0
2018-05-23T00:24:49.926Z,0
2018-05-23T00:25:59.929Z,0
2018-05-23T00:27:09.901Z,0
2018-05-23T00:28:19.606Z,0
2018-05-23T00:29:29.321Z,0
2018-05-23T00:30:39.296Z,0
2018-05-23T00:31:49.002Z,0
2018-05-23T00:32:58.991Z,0
2018-05-23T00:34:08.989Z,0
2018-05-23T00:35:18.714Z,0
2018-05-23T00:36:28.715Z,0
2018-05-23T00:37:38.686Z,0
2018-05-23T00:38:48.406Z,0
2018-05-23T00:39:58.119Z,0
2018-05-23T00:41:08.099Z,0
2018-05-23T00:42:18.074Z,0
2018-05-23T00:43:28.041Z,0
2018-05-23T00:44:38.026Z,0
2018-05-23T00:45:47.735Z,0
2018-05-23T00:46:57.716Z,0
2018-05-23T00:48:07.691Z,0
2018-05-23T00:49:17.671Z,0
2018-05-23T00:50:27.920Z,0
2018-05-23T00:51:37.949Z,0
2018-05-23T00:52:47.927Z,0
2018-05-23T00:53:57.376Z,0
2018-05-23T00:55:07.356Z,0
2018-05-23T00:56:16.802Z,0
2018-05-23T00:57:26.772Z,0
2018-05-23T00:58:36.741Z,0
2018-05-23T00:59:46.711Z,0
2018-05-23T01:00:56.674Z,0
2018-05-23T01:02:06.652Z,0
2018-05-23T01:03:16.628Z,0
2018-05-23T01:04:26.341Z,0
2018-05-23T01:05:36.327Z,0
2018-05-23T01:06:46.295Z,0
2018-05-23T01:07:56.263Z,0
2018-05-23T01:09:06.232Z,0
2018-05-23T01:10:16.222Z,0
2018-05-23T01:11:26.196Z,0
2018-05-23T01:12:36.166Z,0
2018-05-23T01:13:46.136Z,0
2018-05-23T01:14:55.713Z,0
2018-05-23T01:16:05.423Z,0
2018-05-23T01:17:15.390Z,0
2018-05-23T01:18:25.124Z,0
2018-05-23T01:19:34.833Z,0
2018-05-23T01:20:44.824Z,0
2018-05-23T01:21:54.848Z,0
2018-05-23T01:23:04.825Z,0
2018-05-23T01:24:14.800Z,0
2018-05-23T01:25:24.532Z,0
2018-05-23T01:26:34.244Z,0
2018-05-23T01:27:44.217Z,0
2018-05-23T01:28:54.198Z,0
2018-05-23T01:30:03.910Z,0
2018-05-23T01:31:13.872Z,0
2018-05-23T01:32:23.588Z,0
2018-05-23T01:33:33.640Z,0
2018-05-23T01:34:43.631Z,0
2018-05-23T01:35:53.604Z,0
2018-05-23T01:37:03.592Z,0
2018-05-23T01:38:13.580Z,0
2018-05-23T01:39:23.319Z,0
2018-05-23T01:40:32.762Z,0
2018-05-23T01:41:42.727Z,0
2018-05-23T01:42:52.431Z,0
2018-05-23T01:44:02.390Z,0
2018-05-23T01:45:12.360Z,0
2018-05-23T01:46:21.826Z,0
2018-05-23T01:47:31.798Z,0
2018-05-23T01:48:41.769Z,0
2018-05-23T01:49:51.745Z,0
2018-05-23T01:51:01.712Z,0
2018-05-23T01:52:11.685Z,0
2018-05-23T01:53:21.654Z,0
2018-05-23T01:54:31.631Z,0
2018-05-23T01:55:41.599Z,0
2018-05-23T01:56:51.603Z,0
2018-05-23T01:58:01.321Z,0
2018-05-23T01:59:11.051Z,0
2018-05-23T02:00:21.043Z,0
2018-05-23T02:01:31.019Z,0
2018-05-23T02:02:40.992Z,0
2018-05-23T02:03:50.985Z,0
2018-05-23T02:05:01.175Z,0
2018-05-23T02:06:10.884Z,0
2018-05-23T02:07:20.072Z,0
2018-05-23T02:08:30.044Z,0
2018-05-23T02:09:40.029Z,0
2018-05-23T02:10:49.989Z,0
2018-05-23T02:11:59.692Z,0
2018-05-23T02:13:09.755Z,0
2018-05-23T02:14:19.201Z,0
2018-05-23T02:15:29.180Z,4
2018-05-23T02:16:39.157Z,4
2018-05-23T02:17:48.871Z,4
2018-05-23T02:18:58.836Z,0
2018-05-23T02:20:08.560Z,4
2018-05-23T02:21:18.584Z,4
2018-05-23T02:22:28.643Z,4
2018-05-23T02:23:38.607Z,8
2018-05-23T02:24:48.316Z,4
2018-05-23T02:25:58.274Z,8
2018-05-23T02:27:08.240Z,12
2018-05-23T02:28:17.948Z,12
2018-05-23T02:29:27.927Z,16
2018-05-23T02:30:37.922Z,12
2018-05-23T02:31:47.680Z,20
2018-05-23T02:32:57.390Z,20
2018-05-23T02:34:07.367Z,24
2018-05-23T02:35:17.346Z,28
2018-05-23T02:36:27.325Z,32
2018-05-23T02:37:36.789Z,40
2018-05-23T02:38:46.511Z,44
2018-05-23T02:39:56.480Z,52
2018-05-23T02:41:06.458Z,64
2018-05-23T02:42:15.915Z,68
2018-05-23T02:43:25.632Z,80
2018-05-23T02:44:35.366Z,92
2018-05-23T02:45:45.354Z,108
2018-05-23T02:46:55.357Z,120
2018-05-23T02:48:05.434Z,140
2018-05-23T02:49:15.167Z,156
2018-05-23T02:50:25.133Z,184
2018-05-23T02:51:35.107Z,204
2018-05-23T02:52:45.094Z,228
2018-05-23T02:53:54.812Z,256
2018-05-23T02:55:04.533Z,288
2018-05-23T02:56:14.557Z,320
2018-05-23T02:57:24.282Z,356
2018-05-23T02:58:34.000Z,396
2018-05-23T02:59:44.007Z,436
2018-05-23T03:00:53.722Z,484
2018-05-23T03:02:03.808Z,528
2018-05-23T03:03:13.851Z,580
2018-05-23T03:04:23.826Z,628
2018-05-23T03:05:33.017Z,684
2018-05-23T03:06:42.737Z,740
2018-05-23T03:07:52.443Z,800
2018-05-23T03:09:02.424Z,864
2018-05-23T03:10:12.238Z,928
2018-05-23T03:11:21.959Z,996
2018-05-23T03:12:31.421Z,1064
2018-05-23T03:13:41.390Z,1136
2018-05-23T03:14:51.407Z,1220
2018-05-23T03:16:01.387Z,1284
2018-05-23T03:17:11.364Z,1352
2018-05-23T03:18:21.076Z,1436
2018-05-23T03:19:30.785Z,1532
2018-05-23T03:20:40.749Z,1648
2018-05-23T03:21:50.716Z,1704
2018-05-23T03:23:00.827Z,1780
2018-05-23T03:24:10.805Z,1868
2018-05-23T03:25:20.777Z,1952
2018-05-23T03:26:30.745Z,2040
2018-05-23T03:27:40.727Z,2128
2018-05-23T03:28:50.784Z,2220
2018-05-23T03:30:00.744Z,2308
2018-05-23T03:31:10.453Z,2400
2018-05-23T03:32:20.424Z,2496
2018-05-23T03:33:30.422Z,2588
2018-05-23T03:34:40.408Z,2684
2018-05-23T03:35:50.118Z,2776
2018-05-23T03:37:00.108Z,2876
2018-05-23T03:38:10.094Z,2968
2018-05-23T03:39:20.068Z,3060
2018-05-23T03:40:29.777Z,3156
2018-05-23T03:41:39.752Z,3248
2018-05-23T03:42:49.737Z,3340
2018-05-23T03:43:59.702Z,3436
2018-05-23T03:45:09.698Z,3528
2018-05-23T03:46:19.683Z,3616
2018-05-23T03:47:29.653Z,3704
2018-05-23T03:48:39.620Z,3792
2018-05-23T03:49:49.066Z,3884
2018-05-23T03:50:59.048Z,3968
2018-05-23T03:52:09.035Z,4056
2018-05-23T03:53:19.012Z,4144
2018-05-23T03:54:28.803Z,4224
2018-05-23T03:55:38.784Z,4300
2018-05-23T03:56:48.506Z,4376
2018-05-23T03:57:58.209Z,4448
2018-05-23T03:59:07.925Z,4520
2018-05-23T04:00:17.643Z,4592
2018-05-23T04:01:27.617Z,4664
2018-05-23T04:02:37.581Z,4736
2018-05-23T04:03:47.592Z,4812
2018-05-23T04:04:57.294Z,4880
2018-05-23T04:06:07.277Z,4952
2018-05-23T04:07:17.257Z,5024
2018-05-23T04:08:27.237Z,5092
2018-05-23T04:09:37.337Z,5160
2018-05-23T04:10:47.428Z,5228
2018-05-23T04:11:57.495Z,5300
2018-05-23T04:13:07.467Z,5360
2018-05-23T04:14:17.174Z,5424
2018-05-23T04:15:27.432Z,5480
2018-05-23T04:16:37.504Z,5536
2018-05-23T04:17:46.970Z,5588
2018-05-23T04:18:56.933Z,5624
2018-05-23T04:20:06.407Z,5672
2018-05-23T04:21:16.377Z,5716
2018-05-23T04:22:26.360Z,5764
2018-05-23T04:23:36.319Z,5772
2018-05-23T04:24:46.162Z,5784
2018-05-23T04:25:56.338Z,5936
2018-05-23T04:27:06.319Z,6004
2018-05-23T04:28:16.043Z,6040
2018-05-23T04:29:25.753Z,6088
2018-05-23T04:30:35.199Z,6124
2018-05-23T04:31:45.174Z,6168
2018-05-23T04:32:55.139Z,6204
2018-05-23T04:34:04.865Z,6248
2018-05-23T04:35:14.845Z,6296
2018-05-23T04:36:24.298Z,6344
2018-05-23T04:37:34.353Z,6388
2018-05-23T04:38:44.318Z,6436
2018-05-23T04:39:54.300Z,6480
2018-05-23T04:41:04.362Z,6524
2018-05-23T04:42:14.071Z,6572
2018-05-23T04:43:24.052Z,6620
2018-05-23T04:44:33.775Z,6660
2018-05-23T04:45:43.748Z,6708
2018-05-23T04:46:53.719Z,6752
2018-05-23T04:48:03.703Z,6792
2018-05-23T04:49:13.689Z,6840
2018-05-23T04:50:23.669Z,6884
2018-05-23T04:51:33.629Z,6924
2018-05-23T04:52:43.600Z,6976
2018-05-23T04:53:53.577Z,7024
2018-05-23T04:55:03.298Z,7068
2018-05-23T04:56:13.023Z,7112
2018-05-23T04:57:22.999Z,7156
2018-05-23T04:58:32.975Z,7200
2018-05-23T04:59:42.945Z,7248
2018-05-23T05:00:52.922Z,7292
2018-05-23T05:02:02.909Z,7340
2018-05-23T05:03:12.884Z,7380
2018-05-23T05:04:22.866Z,7372
2018-05-23T05:05:32.929Z,7468
2018-05-23T05:06:42.908Z,7504
2018-05-23T05:07:52.872Z,7536
2018-05-23T05:09:02.868Z,7564
2018-05-23T05:10:13.157Z,7588
2018-05-23T05:11:23.121Z,7604
2018-05-23T05:12:33.111Z,7620
2018-05-23T05:13:43.311Z,7636
2018-05-23T05:14:53.308Z,7660
2018-05-23T05:16:03.039Z,7696
2018-05-23T05:17:12.751Z,7744
2018-05-23T05:18:22.717Z,7780
2018-05-23T05:19:32.170Z,7828
2018-05-23T05:20:42.141Z,7904
2018-05-23T05:21:51.865Z,7952
2018-05-23T05:23:01.845Z,7996
2018-05-23T05:24:11.616Z,8008
2018-05-23T05:25:21.613Z,8080
2018-05-23T05:26:31.608Z,8116
2018-05-23T05:27:41.340Z,8132
2018-05-23T05:28:51.327Z,8168
2018-05-23T05:30:01.329Z,8228
2018-05-23T05:31:11.320Z,8280
2018-05-23T05:32:21.052Z,8308
2018-05-23T05:33:30.769Z,8396
2018-05-23T05:34:40.795Z,8464
2018-05-23T05:35:50.537Z,8524
2018-05-23T05:37:00.253Z,8576
2018-05-23T05:38:10.242Z,8640
2018-05-23T05:39:19.970Z,8696
2018-05-23T05:40:30.111Z,8744
2018-05-23T05:41:40.155Z,8788
2018-05-23T05:42:50.173Z,8824
2018-05-23T05:44:00.161Z,8856
2018-05-23T05:45:10.164Z,8880
2018-05-23T05:46:20.152Z,8904
2018-05-23T05:47:29.887Z,8916
2018-05-23T05:48:39.599Z,8936
2018-05-23T05:49:49.626Z,8988
2018-05-23T05:50:59.707Z,9048
2018-05-23T05:52:09.707Z,9080
2018-05-23T05:53:19.692Z,9108
2018-05-23T05:54:29.414Z,9132
2018-05-23T05:55:39.391Z,9168
2018-05-23T05:56:49.375Z,9192
2018-05-23T05:57:59.341Z,9252
2018-05-23T05:59:09.320Z,9284
2018-05-23T06:00:19.343Z,9324
2018-05-23T06:01:29.052Z,9352
2018-05-23T06:02:39.028Z,9384
2018-05-23T06:03:49.000Z,9412
2018-05-23T06:04:58.974Z,9444
2018-05-23T06:06:08.965Z,9488
2018-05-23T06:07:18.692Z,9524
2018-05-23T06:08:28.668Z,9568
2018-05-23T06:09:38.907Z,9612
2018-05-23T06:10:48.521Z,9652
2018-05-23T06:11:58.536Z,9680
2018-05-23T06:13:08.558Z,9740
2018-05-23T06:14:18.287Z,9788
2018-05-23T06:15:28.021Z,9844
2018-05-23T06:16:37.495Z,9916
2018-05-23T06:17:46.948Z,10020
2018-05-23T06:18:56.930Z,10112
2018-05-23T06:20:06.655Z,10192
2018-05-23T06:21:16.638Z,10264
2018-05-23T06:22:27.025Z,10300
2018-05-23T06:23:36.754Z,10332
2018-05-23T06:24:46.799Z,10332
2018-05-23T06:25:56.517Z,10336
2018-05-23T06:27:06.523Z,10388
2018-05-23T06:28:16.492Z,10568
2018-05-23T06:29:26.211Z,10648
2018-05-23T06:30:36.340Z,10724
2018-05-23T06:31:46.114Z,10764
2018-05-23T06:32:56.155Z,10792
2018-05-23T06:34:06.164Z,10896
2018-05-23T06:35:16.285Z,10940
2018-05-23T06:36:26.348Z,10972
2018-05-23T06:37:36.072Z,10996
2018-05-23T06:38:46.052Z,11016
2018-05-23T06:39:56.037Z,11052
2018-05-23T06:41:05.492Z,11080
2018-05-23T06:42:15.208Z,11096
2018-05-23T06:43:24.972Z,11140
2018-05-23T06:44:34.740Z,11164
2018-05-23T06:45:44.458Z,11204
2018-05-23T06:46:54.459Z,11216
2018-05-23T06:48:04.492Z,11264
2018-05-23T06:49:14.512Z,11276
2018-05-23T06:50:24.624Z,11348
2018-05-23T06:51:34.157Z,11404
2018-05-23T06:52:44.365Z,11440
2018-05-23T06:53:54.337Z,11468
2018-05-23T06:55:04.334Z,11512
2018-05-23T06:56:14.299Z,11556
2018-05-23T06:57:24.311Z,11592
2018-05-23T06:58:34.295Z,11600
2018-05-23T06:59:43.766Z,11668
2018-05-23T07:00:53.746Z,11704
2018-05-23T07:02:03.476Z,11736
2018-05-23T07:03:13.471Z,11772
2018-05-23T07:04:23.448Z,11820
2018-05-23T07:05:33.184Z,11840
2018-05-23T07:06:42.919Z,11884
2018-05-23T07:07:52.903Z,11908
2018-05-23T07:09:02.108Z,11940
2018-05-23T07:10:12.091Z,11968
2018-05-23T07:11:22.203Z,12028
2018-05-23T07:12:31.944Z,12052
2018-05-23T07:13:41.950Z,12072
2018-05-23T07:14:51.672Z,12100
2018-05-23T07:16:01.673Z,12108
2018-05-23T07:17:11.141Z,12140
2018-05-23T07:18:21.179Z,12148
2018-05-23T07:19:31.169Z,12156
2018-05-23T07:20:40.887Z,12180
2018-05-23T07:21:50.388Z,12172
2018-05-23T07:23:00.392Z,12248
2018-05-23T07:24:10.544Z,12348
2018-05-23T07:25:20.531Z,12340
2018-05-23T07:26:30.517Z,12408
2018-05-23T07:27:40.495Z,12444
2018-05-23T07:28:50.233Z,12452
2018-05-23T07:30:00.010Z,12468
2018-05-23T07:31:09.896Z,12436
2018-05-23T07:32:19.883Z,12408
2018-05-23T07:33:29.624Z,12404
2018-05-23T07:34:39.611Z,12416
2018-05-23T07:35:49.622Z,12416
2018-05-23T07:36:59.610Z,12352
2018-05-23T07:38:09.593Z,12572
2018-05-23T07:39:19.313Z,12672
2018-05-23T07:40:29.304Z,12768
2018-05-23T07:41:39.288Z,12812
2018-05-23T07:42:49.273Z,12816
2018-05-23T07:43:59.262Z,12912
2018-05-23T07:45:09.252Z,13004
2018-05-23T07:46:19.246Z,13068
2018-05-23T07:47:28.974Z,13140
2018-05-23T07:48:38.987Z,13108
2018-05-23T07:49:48.963Z,13268
2018-05-23T07:50:58.940Z,13344
2018-05-23T07:52:08.938Z,13576
2018-05-23T07:53:18.949Z,13688
2018-05-23T07:54:28.677Z,13832
2018-05-23T07:55:38.667Z,13908
2018-05-23T07:56:49.070Z,13984
2018-05-23T07:57:58.796Z,14020
2018-05-23T07:59:08.828Z,14056
2018-05-23T08:00:18.862Z,14012
2018-05-23T08:01:28.887Z,13988
2018-05-23T08:02:38.885Z,13748
2018-05-23T08:03:48.646Z,13796
2018-05-23T08:04:58.371Z,13988
2018-05-23T08:06:08.347Z,14124
2018-05-23T08:07:18.091Z,14260
2018-05-23T08:08:27.807Z,14280
2018-05-23T08:09:37.789Z,14436
2018-05-23T08:10:47.785Z,14476
2018-05-23T08:11:57.779Z,14544
2018-05-23T08:13:07.513Z,14560
2018-05-23T08:14:17.236Z,14412
2018-05-23T08:15:26.972Z,14604
2018-05-23T08:16:37.159Z,14860
2018-05-23T08:17:46.873Z,15052
2018-05-23T08:18:56.882Z,15376
2018-05-23T08:20:06.611Z,15572
2018-05-23T08:21:16.590Z,15772
2018-05-23T08:22:26.547Z,15992
2018-05-23T08:23:36.548Z,16080
2018-05-23T08:24:46.299Z,16492
2018-05-23T08:25:56.302Z,16828
2018-05-23T08:27:06.276Z,17628
2018-05-23T08:28:16.265Z,34272
2018-05-23T08:29:26.265Z,49472
2018-05-23T08:30:36.014Z,49344
2018-05-23T08:31:46.018Z,48800
2018-05-23T08:32:56.001Z,51200
2018-05-23T08:34:05.741Z,46240
2018-05-23T08:35:15.463Z,44544
2018-05-23T08:36:25.319Z,47392
2018-05-23T08:37:35.412Z,46912
2018-05-23T08:38:44.973Z,46432
2018-05-23T08:39:54.711Z,46080
2018-05-23T08:41:04.736Z,47392
2018-05-23T08:42:14.491Z,46976
2018-05-23T08:43:24.528Z,47136
2018-05-23T08:44:34.549Z,48128
2018-05-23T08:45:44.583Z,47648
2018-05-23T08:46:54.349Z,48480
2018-05-23T08:48:04.346Z,49760
2018-05-23T08:49:14.329Z,50656
2018-05-23T08:50:24.308Z,49888
2018-05-23T08:51:34.308Z,49536
2018-05-23T08:52:44.307Z,43520
2018-05-23T08:53:54.300Z,47776
2018-05-23T08:55:04.319Z,50752
2018-05-23T08:56:14.053Z,54624
2018-05-23T08:57:24.049Z,57600
2018-05-23T08:58:34.056Z,58400
2018-05-23T08:59:43.805Z,60256
2018-05-23T09:00:53.825Z,60768
2018-05-23T09:02:03.834Z,60224
2018-05-23T09:03:13.594Z,62176
2018-05-23T09:04:23.593Z,62272
2018-05-23T09:05:33.606Z,58528
2018-05-23T09:06:43.081Z,55136
2018-05-23T09:07:53.079Z,58656
2018-05-23T09:09:03.084Z,56576
2018-05-23T09:10:13.323Z,61728
2018-05-23T09:11:23.330Z,62240
2018-05-23T09:12:34.117Z,62368
2018-05-23T09:13:44.312Z,65184
2018-05-23T09:14:53.787Z,65408
2018-05-23T09:16:03.781Z,65728
2018-05-23T09:17:13.775Z,66208
2018-05-23T09:18:23.516Z,63168
2018-05-23T09:19:33.004Z,64416
2018-05-23T09:20:42.769Z,66016
2018-05-23T09:21:52.777Z,62528
2018-05-23T09:23:02.798Z,64416
2018-05-23T09:24:12.832Z,68160
2018-05-23T09:25:22.949Z,67584
2018-05-23T09:26:33.012Z,71200
2018-05-23T09:27:42.766Z,72640
2018-05-23T09:28:52.861Z,71456
2018-05-23T09:30:02.874Z,72384
2018-05-23T09:31:12.940Z,72768
2018-05-23T09:32:23.262Z,72512
2018-05-23T09:33:33.261Z,74592
2018-05-23T09:34:43.260Z,76544
2018-05-23T09:35:53.274Z,73024
2018-05-23T09:37:03.282Z,76256
2018-05-23T09:38:13.052Z,76160
2018-05-23T09:39:23.284Z,73184
2018-05-23T09:40:33.284Z,76384
2018-05-23T09:41:43.036Z,82688
2018-05-23T09:42:53.054Z,83680
2018-05-23T09:44:03.078Z,81504
2018-05-23T09:45:13.281Z,83360
2018-05-23T09:46:23.545Z,84448
2018-05-23T09:47:33.558Z,85088
2018-05-23T09:48:43.327Z,85216
2018-05-23T09:49:53.074Z,86624
2018-05-23T09:51:03.061Z,83616
2018-05-23T09:52:13.378Z,85408
2018-05-23T09:53:23.258Z,89120
2018-05-23T09:54:33.340Z,84160
2018-05-23T09:55:43.364Z,80608
2018-05-23T09:56:53.362Z,85856
2018-05-23T09:58:03.353Z,91552
2018-05-23T09:59:13.363Z,90752
2018-05-23T10:00:23.376Z,91488
2018-05-23T10:01:33.343Z,91584
2018-05-23T10:02:43.424Z,90464
2018-05-23T10:03:53.411Z,89472
2018-05-23T10:05:03.397Z,94528
2018-05-23T10:06:13.387Z,93280
2018-05-23T10:07:23.398Z,94176
2018-05-23T10:08:33.418Z,102144
2018-05-23T10:09:43.401Z,96384
2018-05-23T10:10:53.400Z,92704
2018-05-23T10:12:03.403Z,95968
2018-05-23T10:13:12.894Z,103968
2018-05-23T10:14:22.896Z,100384
2018-05-23T10:15:32.639Z,98784
2018-05-23T10:16:42.753Z,102112
2018-05-23T10:17:52.757Z,100384
2018-05-23T10:19:02.760Z,103296
2018-05-23T10:20:12.757Z,96640
2018-05-23T10:21:22.750Z,99520
2018-05-23T10:22:32.753Z,103008
2018-05-23T10:23:42.484Z,104000
2018-05-23T10:24:52.495Z,106112
2018-05-23T10:26:02.491Z,105728
2018-05-23T10:27:12.244Z,107968
2018-05-23T10:28:21.979Z,106144
2018-05-23T10:29:31.993Z,103360
2018-05-23T10:30:41.986Z,104864
2018-05-23T10:31:52.019Z,113568
2018-05-23T10:33:02.024Z,117664
2018-05-23T10:34:12.035Z,114144
2018-05-23T10:35:22.046Z,113888
2018-05-23T10:36:31.535Z,113504
2018-05-23T10:37:41.520Z,109536
2018-05-23T10:38:51.569Z,107424
2018-05-23T10:40:01.577Z,101952
2018-05-23T10:41:11.572Z,101792
2018-05-23T10:42:21.580Z,108736
2018-05-23T10:43:31.611Z,107424
2018-05-23T10:44:41.607Z,105792
2018-05-23T10:45:51.393Z,115712
2018-05-23T10:47:01.403Z,110176
2018-05-23T10:48:11.448Z,116000
2018-05-23T10:49:21.487Z,117312
2018-05-23T10:50:31.513Z,111744
2018-05-23T10:51:41.812Z,115648
2018-05-23T10:52:51.932Z,119456
2018-05-23T10:54:01.682Z,111104
2018-05-23T10:55:11.461Z,112864
2018-05-23T10:56:21.202Z,116768
2018-05-23T10:57:31.220Z,108704
2018-05-23T10:58:41.274Z,108032
2018-05-23T10:59:51.296Z,118208
2018-05-23T11:01:01.305Z,121184
2018-05-23T11:02:11.323Z,114336
2018-05-23T11:03:21.328Z,113056
2018-05-23T11:04:31.060Z,113056
2018-05-23T11:05:40.976Z,125600
2018-05-23T11:06:51.013Z,123040
2018-05-23T11:08:00.755Z,117504
2018-05-23T11:09:10.995Z,119264
2018-05-23T11:10:21.038Z,112544
2018-05-23T11:11:31.047Z,108032
2018-05-23T11:12:41.092Z,110912
2018-05-23T11:13:50.598Z,121792
2018-05-23T11:15:00.481Z,128192
2018-05-23T11:16:10.747Z,115744
2018-05-23T11:17:20.768Z,115808
2018-05-23T11:18:30.763Z,119616
2018-05-23T11:19:40.499Z,114624
2018-05-23T11:20:50.234Z,110816
2018-05-23T11:22:00.261Z,115360
2018-05-23T11:23:10.273Z,128192
2018-05-23T11:24:20.034Z,125184
2018-05-23T11:25:29.514Z,119680
2018-05-23T11:26:38.986Z,120864
2018-05-23T11:27:48.718Z,118816
2018-05-23T11:28:58.444Z,123712
2018-05-23T11:30:07.922Z,115136
2018-05-23T11:31:17.968Z,106560
2018-05-23T11:32:27.971Z,111040
2018-05-23T11:33:37.988Z,106784
2018-05-23T11:34:47.993Z,118016
2018-05-23T11:35:57.981Z,114784
2018-05-23T11:37:07.761Z,125440
2018-05-23T11:38:17.775Z,133280
2018-05-23T11:39:27.516Z,133888
2018-05-23T11:40:37.529Z,119744
2018-05-23T11:41:47.335Z,114112
2018-05-23T11:42:57.369Z,124512
2018-05-23T11:44:07.116Z,130336
2018-05-23T11:45:16.603Z,131392
2018-05-23T11:46:26.522Z,132192
2018-05-23T11:47:36.554Z,135264
2018-05-23T11:48:46.343Z,134528
2018-05-23T11:49:56.090Z,124800
2018-05-23T11:51:05.573Z,112928
2018-05-23T11:52:15.506Z,124256
2018-05-23T11:53:25.422Z,126880
2018-05-23T11:54:35.698Z,125280
2018-05-23T11:55:45.533Z,131712
2018-05-23T11:56:55.544Z,134272
2018-05-23T11:58:05.553Z,127840
2018-05-23T11:59:14.760Z,130560
2018-05-23T12:00:24.490Z,130400
2018-05-23T12:01:34.492Z,134144
2018-05-23T12:02:43.728Z,133376
2018-05-23T12:03:53.488Z,130880
2018-05-23T12:05:02.972Z,127968
2018-05-23T12:06:12.988Z,126336
2018-05-23T12:07:22.472Z,123168
2018-05-23T12:08:32.220Z,124544
2018-05-23T12:09:42.110Z,128704
2018-05-23T12:10:51.612Z,122048
2018-05-23T12:12:01.628Z,126112
2018-05-23T12:13:11.399Z,124512
2018-05-23T12:14:21.164Z,121760
2018-05-23T12:15:30.927Z,123936
2018-05-23T12:16:40.947Z,135456
2018-05-23T12:17:50.174Z,130816
2018-05-23T12:18:59.911Z,128864
2018-05-23T12:20:09.419Z,131040
2018-05-23T12:21:19.175Z,127040
2018-05-23T12:22:28.918Z,124672
2018-05-23T12:23:38.950Z,131488
2018-05-23T12:24:48.991Z,128864
2018-05-23T12:25:59.003Z,127680
2018-05-23T12:27:08.759Z,129856
2018-05-23T12:28:18.255Z,124480
2018-05-23T12:29:28.007Z,123264
2018-05-23T12:30:38.053Z,129216
2018-05-23T12:31:48.058Z,126496
2018-05-23T12:32:57.800Z,121696
2018-05-23T12:34:07.822Z,137312
2018-05-23T12:35:17.850Z,136160
2018-05-23T12:36:27.592Z,130720
2018-05-23T12:37:37.348Z,134016
2018-05-23T12:38:47.380Z,140000
2018-05-23T12:39:57.168Z,133664
2018-05-23T12:41:07.401Z,127136
2018-05-23T12:42:17.405Z,131488
2018-05-23T12:43:27.183Z,128608
2018-05-23T12:44:36.932Z,123680
2018-05-23T12:45:46.943Z,131008
2018-05-23T12:46:56.951Z,135008
2018-05-23T12:48:06.982Z,130464
2018-05-23T12:49:16.971Z,128032
2018-05-23T12:50:26.975Z,125632
2018-05-23T12:51:36.983Z,129248
2018-05-23T12:52:46.969Z,128928
2018-05-23T12:53:56.455Z,122240
2018-05-23T12:55:06.195Z,122752
2018-05-23T12:56:15.941Z,133056
2018-05-23T12:57:25.706Z,131872
2018-05-23T12:58:35.453Z,126624
2018-05-23T12:59:45.232Z,132256
2018-05-23T13:00:54.982Z,132768
2018-05-23T13:02:04.977Z,129984
2018-05-23T13:03:14.726Z,129472
2018-05-23T13:04:24.578Z,132448
2018-05-23T13:05:34.095Z,145632
2018-05-23T13:06:43.859Z,143296
2018-05-23T13:07:53.345Z,128096
2018-05-23T13:09:03.353Z,133696
2018-05-23T13:10:13.360Z,126496
2018-05-23T13:11:23.107Z,109536
2018-05-23T13:12:33.160Z,129440
2018-05-23T13:13:43.206Z,131136
2018-05-23T13:14:52.944Z,114752
2018-05-23T13:16:02.684Z,121472
2018-05-23T13:17:12.433Z,125216
2018-05-23T13:18:21.919Z,124160
2018-05-23T13:19:31.653Z,129312
2018-05-23T13:20:41.663Z,118784
2018-05-23T13:21:51.657Z,124256
2018-05-23T13:23:00.877Z,129216
2018-05-23T13:24:10.618Z,123648
2018-05-23T13:25:20.627Z,126144
2018-05-23T13:26:30.363Z,133408
2018-05-23T13:27:40.362Z,132448
2018-05-23T13:28:50.349Z,126880
2018-05-23T13:30:00.405Z,127616
2018-05-23T13:31:10.433Z,131072
2018-05-23T13:32:20.427Z,132544
2018-05-23T13:33:30.179Z,137664
2018-05-23T13:34:40.168Z,136224
2018-05-23T13:35:50.194Z,132864
2018-05-23T13:37:00.198Z,131136
2018-05-23T13:38:10.198Z,131360
2018-05-23T13:39:20.198Z,128768
2018-05-23T13:40:30.207Z,127904
2018-05-23T13:41:40.233Z,131008
2018-05-23T13:42:50.242Z,126144
2018-05-23T13:44:00.247Z,122272
2018-05-23T13:45:10.406Z,126208
2018-05-23T13:46:20.422Z,121120
2018-05-23T13:47:30.464Z,122560
2018-05-23T13:48:40.200Z,127008
2018-05-23T13:49:49.942Z,132064
2018-05-23T13:50:59.691Z,135008
2018-05-23T13:52:09.690Z,131456
2018-05-23T13:53:19.428Z,132352
2018-05-23T13:54:29.428Z,135648
2018-05-23T13:55:39.187Z,130048
2018-05-23T13:56:49.186Z,127616
2018-05-23T13:57:59.181Z,124224
2018-05-23T13:59:09.262Z,121856
2018-05-23T14:00:18.996Z,124096
2018-05-23T14:01:28.761Z,125248
2018-05-23T14:02:38.758Z,125408
2018-05-23T14:03:48.768Z,119168
2018-05-23T14:04:58.508Z,108096
2018-05-23T14:06:08.532Z,108960
2018-05-23T14:07:18.565Z,116896
2018-05-23T14:08:28.591Z,125120
2018-05-23T14:09:38.458Z,129760
2018-05-23T14:10:48.548Z,126880
2018-05-23T14:11:58.543Z,121568
2018-05-23T14:13:08.543Z,127232
2018-05-23T14:14:18.553Z,128128
2018-05-23T14:15:28.548Z,127968
2018-05-23T14:16:38.389Z,125440
2018-05-23T14:17:48.395Z,125760
2018-05-23T14:18:58.410Z,122432
2018-05-23T14:20:08.239Z,119968
2018-05-23T14:21:17.985Z,121696
2018-05-23T14:22:27.747Z,112704
2018-05-23T14:23:37.747Z,104768
2018-05-23T14:24:47.745Z,89792
2018-05-23T14:25:57.767Z,94208
2018-05-23T14:27:07.784Z,81056
2018-05-23T14:28:17.778Z,58560
2018-05-23T14:29:27.780Z,56224
2018-05-23T14:30:37.788Z,76544
2018-05-23T14:31:47.803Z,97536
2018-05-23T14:32:57.624Z,92832
2018-05-23T14:34:07.371Z,89440
2018-05-23T14:35:17.378Z,109376
2018-05-23T14:36:27.403Z,89376
2018-05-23T14:37:37.650Z,90880
2018-05-23T14:38:47.691Z,85728
2018-05-23T14:39:57.732Z,86144
2018-05-23T14:41:07.744Z,90080
2018-05-23T14:42:17.730Z,92032
2018-05-23T14:43:27.387Z,111552
2018-05-23T14:44:37.620Z,107104
2018-05-23T14:45:47.639Z,103168
2018-05-23T14:46:57.653Z,108032
2018-05-23T14:48:07.397Z,110592
2018-05-23T14:49:17.397Z,104960
2018-05-23T14:50:27.390Z,108448
2018-05-23T14:51:36.886Z,114624
2018-05-23T14:52:46.628Z,116960
2018-05-23T14:53:56.648Z,118688
2018-05-23T14:55:06.679Z,120800
2018-05-23T14:56:16.693Z,116192
2018-05-23T14:57:26.837Z,115328
2018-05-23T14:58:36.870Z,113632
2018-05-23T14:59:46.867Z,117152
2018-05-23T15:00:56.887Z,117984
2018-05-23T15:02:06.884Z,111904
2018-05-23T15:03:16.881Z,114080
2018-05-23T15:04:26.615Z,109184
2018-05-23T15:05:36.342Z,108160
2018-05-23T15:06:46.334Z,103744
2018-05-23T15:07:56.314Z,103584
2018-05-23T15:09:06.314Z,107008
2018-05-23T15:10:16.316Z,100736
2018-05-23T15:11:26.300Z,103232
2018-05-23T15:12:36.297Z,103168
2018-05-23T15:13:46.308Z,96608
2018-05-23T15:14:56.322Z,105248
2018-05-23T15:16:06.314Z,96512
2018-05-23T15:17:16.324Z,80288
2018-05-23T15:18:26.067Z,80352
2018-05-23T15:19:36.086Z,94592